Time;durP1;ratioP1;P1;durP2;ratioP2;P2;SDS_P1;SDS_P2;PMS_P1;PMS_P2;Temp;Humidity;BMP_temperature;BMP_pressure;BME280_temperature;BME280_humidity;BME280_pressure;Samples;Min_cycle;Max_cycle;Signal;HPM_P1;HPM_P2
2021/06/29 04:40:58;;;;;;;25.50;17.75;;;;;;;24.03;78.32;94964.88;5826959;23;20078;-74
2021/06/29 05:01:30;;;;;;;24.02;17.15;;;;;;;24.23;77.59;94966.88;5568899;23;20051;-76
2021/06/29 05:03:55;;;;;;;27.42;18.52;;;;;;;25.41;72.47;94962.66;4950387;28;20030;-75
2021/06/29 05:06:21;;;;;;;21.55;16.58;;;;;;;26.83;67.06;94966.09;4969188;28;20031;-75
2021/06/29 05:08:46;;;;;;;23.00;16.00;;;;;;;27.73;64.75;94956.84;4968556;28;20018;-75
2021/06/29 05:11:12;;;;;;;22.77;16.40;;;;;;;28.13;62.13;94963.72;4969014;28;20121;-75
2021/06/29 05:13:37;;;;;;;23.02;16.20;;;;;;;28.11;64.13;94961.38;4968528;28;20066;-76
2021/06/29 05:16:03;;;;;;;22.02;16.95;;;;;;;29.26;58.74;94960.41;4968681;28;20030;-75
2021/06/29 05:18:28;;;;;;;25.88;17.15;;;;;;;28.70;60.53;94958.41;4969480;28;20117;-75
2021/06/29 05:20:54;;;;;;;24.80;18.35;;;;;;;30.27;56.58;94958.91;4967091;28;20023;-75
2021/06/29 05:23:21;;;;;;;27.73;18.88;;;;;;;30.10;57.11;94950.66;4969334;28;20085;-75
2021/06/29 05:25:46;;;;;;;27.52;17.80;;;;;;;31.02;54.69;94951.38;4967730;28;20034;-75
2021/06/29 05:28:12;;;;;;;23.10;15.70;;;;;;;30.65;55.20;94947.00;4969233;28;20631;-75
2021/06/29 05:30:37;;;;;;;23.08;16.50;;;;;;;30.05;56.79;94948.06;4966372;28;20094;-75
2021/06/29 05:33:03;;;;;;;24.83;18.40;;;;;;;31.69;52.77;94952.38;4969528;28;20031;-75
2021/06/29 05:35:28;;;;;;;27.95;18.85;;;;;;;32.78;50.15;94956.41;4968020;28;20483;-76
2021/06/29 05:37:54;;;;;;;29.75;17.58;;;;;;;31.96;51.76;94954.16;4968668;28;20029;-75
2021/06/29 05:40:19;;;;;;;17.73;15.63;;;;;;;32.20;51.96;94960.03;4951372;28;20027;-76
2021/06/29 05:42:45;;;;;;;23.77;18.23;;;;;;;30.16;55.72;94954.81;4967855;28;20027;-75
2021/06/29 05:45:15;;;;;;;21.52;17.20;;;;;;;30.92;54.19;94959.59;4968963;28;20026;-75
2021/06/29 05:47:41;;;;;;;20.10;16.85;;;;;;;32.42;51.52;94959.22;4967660;28;20034;-76
2021/06/29 05:50:09;;;;;;;24.67;17.92;;;;;;;33.06;48.63;94967.72;4969027;28;20026;-75
2021/06/29 05:52:35;;;;;;;24.02;16.95;;;;;;;31.73;51.63;94963.28;4968316;28;20101;-77
2021/06/29 05:55:00;;;;;;;24.73;17.90;;;;;;;32.75;51.02;94957.03;4968355;28;20514;-76
2021/06/29 05:57:26;;;;;;;22.50;17.10;;;;;;;33.72;48.31;94955.84;4968011;28;20481;-77
2021/06/29 05:59:51;;;;;;;25.10;17.98;;;;;;;33.25;49.58;94960.22;4967660;28;20023;-76
2021/06/29 06:02:17;;;;;;;20.95;16.80;;;;;;;32.19;50.39;94960.34;4968080;28;20456;-76
2021/06/29 06:04:43;;;;;;;22.48;17.45;;;;;;;33.06;50.10;94956.97;4967539;28;20099;-77
2021/06/29 06:07:08;;;;;;;20.67;16.17;;;;;;;32.94;49.45;94962.16;4955406;28;20632;-76
2021/06/29 06:09:34;;;;;;;17.75;15.85;;;;;;;32.41;51.91;94967.56;4947645;29;20023;-76
2021/06/29 06:11:59;;;;;;;29.90;17.40;;;;;;;32.08;51.07;94961.66;4948365;29;20122;-78
2021/06/29 06:14:25;;;;;;;27.90;17.48;;;;;;;32.89;50.19;94960.38;4947998;29;20027;-77
2021/06/29 06:16:50;;;;;;;24.67;18.80;;;;;;;29.43;56.57;94957.25;4948576;29;20023;-76
2021/06/29 06:19:16;;;;;;;21.50;17.52;;;;;;;31.96;52.03;94956.03;4948777;28;20023;-76
2021/06/29 06:21:41;;;;;;;19.67;15.82;;;;;;;33.76;48.19;94949.53;4947902;28;20044;-76
2021/06/29 06:24:07;;;;;;;23.80;17.13;;;;;;;34.47;47.88;94946.44;4948916;29;20378;-76
2021/06/29 06:26:33;;;;;;;19.80;15.23;;;;;;;36.17;43.62;94953.91;4947263;29;20124;-76
2021/06/29 06:28:58;;;;;;;21.98;17.48;;;;;;;35.42;45.76;94953.81;4953553;28;20035;-76
2021/06/29 06:31:24;;;;;;;20.35;17.02;;;;;;;33.44;47.17;94941.09;4948962;28;20036;-76
2021/06/29 06:33:49;;;;;;;23.10;16.92;;;;;;;31.85;52.45;94934.84;4965208;28;20039;-75
2021/06/29 06:36:14;;;;;;;21.73;16.55;;;;;;;34.55;47.42;94938.34;4953200;29;20035;-76
2021/06/29 06:38:40;;;;;;;23.30;17.17;;;;;;;33.10;48.91;94947.22;4951782;28;20039;-76
2021/06/29 06:41:05;;;;;;;25.08;17.25;;;;;;;32.92;49.74;94948.22;4953438;29;20031;-78
2021/06/29 06:43:31;;;;;;;29.67;18.17;;;;;;;29.04;60.56;94944.94;4951264;28;20489;-75
2021/06/29 06:45:56;;;;;;;23.02;17.02;;;;;;;28.45;64.29;94944.53;4953185;28;20089;-76
2021/06/29 06:48:22;;;;;;;23.33;17.52;;;;;;;30.45;57.83;94938.56;4948449;28;20035;-76
2021/06/29 06:50:49;;;;;;;23.02;16.52;;;;;;;29.86;59.93;94933.94;4955177;28;20457;-74
2021/06/29 06:53:14;;;;;;;20.10;15.25;;;;;;;28.90;62.05;94948.59;4951626;28;20031;-76
2021/06/29 06:55:40;;;;;;;21.42;16.35;;;;;;;30.26;57.25;94946.63;4949812;29;20039;-76
2021/06/29 06:58:06;;;;;;;20.98;16.88;;;;;;;34.88;47.17;94941.25;4951367;29;20019;-76
2021/06/29 07:00:31;;;;;;;19.08;16.20;;;;;;;35.56;44.84;94934.69;4951169;28;20546;-78
2021/06/29 07:02:57;;;;;;;18.75;15.77;;;;;;;33.68;47.55;94941.47;4987252;28;20034;-76
2021/06/29 07:05:23;;;;;;;22.95;16.95;;;;;;;34.47;47.86;94935.69;4974792;28;21334;-76
2021/06/29 07:07:48;;;;;;;18.05;15.30;;;;;;;35.19;45.83;94938.28;4975673;28;20491;-76
2021/06/29 07:10:14;;;;;;;22.00;15.63;;;;;;;32.27;51.29;94932.78;4977999;28;20788;-76
2021/06/29 07:12:39;;;;;;;17.85;15.68;;;;;;;31.65;55.89;94937.22;4982488;28;20413;-75
2021/06/29 07:15:06;;;;;;;21.25;15.75;;;;;;;29.65;60.35;94928.09;4986537;28;20037;-75
2021/06/29 07:17:33;;;;;;;18.13;14.52;;;;;;;28.73;61.56;94925.84;4987959;28;20034;-76
2021/06/29 07:19:59;;;;;;;18.42;14.18;;;;;;;28.85;62.69;94929.97;4963713;28;20031;-76
2021/06/29 07:22:24;;;;;;;15.13;13.60;;;;;;;28.52;62.46;94936.97;4963889;28;20034;-75
2021/06/29 07:24:50;;;;;;;17.80;13.05;;;;;;;27.83;65.64;94932.81;4967958;28;20027;-75
2021/06/29 07:27:15;;;;;;;17.48;13.98;;;;;;;28.86;61.67;94929.69;4967861;28;20054;-75
2021/06/29 07:29:41;;;;;;;18.77;13.77;;;;;;;28.58;65.03;94928.63;4969803;28;20031;-75
2021/06/29 07:32:07;;;;;;;16.02;12.55;;;;;;;30.54;60.09;94926.88;4968920;28;20038;-76
2021/06/29 07:34:32;;;;;;;11.48;10.20;;;;;;;29.40;60.29;94926.59;4968524;28;20408;-75
2021/06/29 07:36:58;;;;;;;16.48;13.35;;;;;;;28.93;62.76;94924.00;4969532;28;20023;-75
2021/06/29 07:39:23;;;;;;;15.90;12.40;;;;;;;30.02;62.21;94921.94;4967571;28;20034;-75
2021/06/29 07:41:49;;;;;;;14.15;11.60;;;;;;;30.06;59.21;94926.38;4968235;28;20062;-75
2021/06/29 07:44:14;;;;;;;12.25;10.20;;;;;;;30.41;60.28;94924.97;4967267;28;20065;-75
2021/06/29 07:46:41;;;;;;;11.48;10.27;;;;;;;28.93;62.05;94921.34;4968352;28;20035;-75
2021/06/29 07:49:07;;;;;;;13.93;10.27;;;;;;;29.72;60.13;94913.28;4968613;28;20030;-74
2021/06/29 07:51:32;;;;;;;11.07;10.00;;;;;;;30.31;59.24;94920.59;4961841;28;20463;-75
2021/06/29 07:53:58;;;;;;;13.48;9.50;;;;;;;30.69;60.97;94923.94;4982105;28;20030;-75
2021/06/29 07:56:25;;;;;;;15.20;11.52;;;;;;;30.36;59.36;94922.38;4972596;28;20035;-74
2021/06/29 07:58:50;;;;;;;13.35;11.27;;;;;;;29.74;58.97;94921.78;4976274;28;20076;-75
2021/06/29 08:01:16;;;;;;;12.40;10.80;;;;;;;29.59;62.59;94913.22;4967198;28;20204;-75
2021/06/29 08:03:42;;;;;;;11.25;10.15;;;;;;;28.75;63.53;94918.34;4968452;28;20037;-75
2021/06/29 08:06:07;;;;;;;13.95;10.30;;;;;;;30.47;59.86;94905.06;4966388;28;20034;-75
2021/06/29 08:08:33;;;;;;;11.63;9.52;;;;;;;30.60;58.63;94914.22;4968984;28;20526;-75
2021/06/29 08:10:59;;;;;;;13.00;10.60;;;;;;;29.73;61.30;94906.84;4967016;28;20031;-75
2021/06/29 08:13:25;;;;;;;13.80;10.80;;;;;;;30.36;60.10;94911.69;4968495;28;20019;-75
2021/06/29 08:15:50;;;;;;;13.15;10.77;;;;;;;30.21;59.34;94904.72;4961203;28;20417;-75
2021/06/29 08:18:16;;;;;;;11.20;10.13;;;;;;;30.36;59.24;94906.34;4961381;28;20026;-75
2021/06/29 08:20:42;;;;;;;11.02;9.75;;;;;;;30.56;60.87;94908.69;4967560;28;20432;-75
2021/06/29 08:23:08;;;;;;;10.55;9.50;;;;;;;29.98;58.88;94903.00;4966724;28;20022;-75
2021/06/29 08:25:34;;;;;;;13.18;10.98;;;;;;;30.49;61.48;94908.25;4968229;28;20026;-76
2021/06/29 08:28:00;;;;;;;13.60;10.65;;;;;;;30.82;60.32;94906.28;4960537;28;20170;-75
2021/06/29 08:30:26;;;;;;;16.02;10.07;;;;;;;30.98;59.98;94901.44;4963063;28;20698;-76
2021/06/29 08:32:52;;;;;;;11.05;9.95;;;;;;;29.49;61.78;94889.34;4948865;28;20039;-79
2021/06/29 08:35:18;;;;;;;10.20;9.30;;;;;;;29.72;61.95;94889.25;4951871;28;20034;-76
2021/06/29 08:37:43;;;;;;;14.18;9.65;;;;;;;30.22;60.26;94892.16;4949859;28;20105;-77
2021/06/29 08:40:10;;;;;;;13.13;9.60;;;;;;;28.70;63.03;94883.75;4947856;28;20166;-78
2021/06/29 08:42:37;;;;;;;11.25;10.20;;;;;;;30.02;58.98;94884.50;4947857;28;20114;-75
2021/06/29 08:45:04;;;;;;;10.85;9.50;;;;;;;29.81;60.53;94887.50;4945423;28;20034;-75
2021/06/29 08:47:29;;;;;;;10.10;8.90;;;;;;;29.54;62.39;94876.69;4948282;28;20023;-75
2021/06/29 08:49:55;;;;;;;9.02;8.20;;;;;;;29.81;60.44;94882.16;4951265;28;20555;-75
2021/06/29 08:52:20;;;;;;;9.98;9.18;;;;;;;30.15;60.62;94883.75;4961217;28;20019;-75
2021/06/29 08:54:46;;;;;;;9.68;8.52;;;;;;;29.75;60.07;94880.66;4948771;28;20485;-76
2021/06/29 08:57:12;;;;;;;10.20;8.65;;;;;;;30.39;56.80;94876.34;4915673;28;20071;-76
2021/06/29 08:59:39;;;;;;;8.40;7.60;;;;;;;30.23;56.77;94873.16;4952755;28;20031;-75
2021/06/29 09:02:05;;;;;;;9.80;8.80;;;;;;;29.92;58.83;94874.00;4940526;28;20054;-75
2021/06/29 09:04:43;;;;;;;8.32;7.53;;;;;;;29.47;58.79;94865.63;4950231;28;20024;-76
2021/06/29 09:07:25;;;;;;;11.55;7.63;;;;;;;30.30;55.71;94864.75;4949787;28;20078;-75
2021/06/29 09:10:00;;;;;;;8.18;7.47;;;;;;;30.59;55.52;94856.47;4954288;28;20023;-74
2021/06/29 09:12:46;;;;;;;9.73;7.85;;;;;;;30.21;60.27;94861.94;4954404;28;20113;-73
2021/06/29 09:15:31;;;;;;;8.27;7.13;;;;;;;29.84;55.20;94853.28;4949703;28;20444;-75
2021/06/29 09:18:07;;;;;;;8.43;7.57;;;;;;;29.95;54.83;94862.72;4952927;28;20033;-76
2021/06/29 09:20:47;;;;;;;8.20;7.50;;;;;;;30.46;53.93;94859.94;4949710;28;20041;-75
2021/06/29 09:23:21;;;;;;;9.18;8.27;;;;;;;30.86;54.65;94861.00;4942841;29;20027;-76
2021/06/29 09:26:13;;;;;;;8.23;7.43;;;;;;;30.96;53.77;94856.22;4947477;28;20030;-75
2021/06/29 09:28:54;;;;;;;8.77;8.00;;;;;;;30.88;54.50;94856.91;4945609;29;20039;-75
2021/06/29 09:31:27;;;;;;;7.70;7.00;;;;;;;31.35;53.83;94855.63;4947366;28;20049;-74
2021/06/29 09:34:00;;;;;;;10.75;8.10;;;;;;;30.58;52.69;94852.97;4948297;28;20062;-74
2021/06/29 09:36:29;;;;;;;8.07;7.35;;;;;;;30.94;53.69;94849.56;4944696;29;20496;-75
2021/06/29 09:38:57;;;;;;;8.38;7.47;;;;;;;30.48;54.95;94853.19;4947979;28;20034;-75
2021/06/29 09:41:24;;;;;;;13.87;8.13;;;;;;;30.39;54.82;94840.78;4946671;28;20031;-75
2021/06/29 09:43:51;;;;;;;8.38;7.68;;;;;;;30.82;57.08;94840.16;4945573;28;20035;-74
2021/06/29 09:46:18;;;;;;;10.18;8.63;;;;;;;30.23;54.18;94842.94;4938566;28;20051;-75
2021/06/29 09:48:46;;;;;;;8.75;7.93;;;;;;;30.90;55.19;94832.53;4947142;28;20045;-75
2021/06/29 09:51:16;;;;;;;8.10;7.43;;;;;;;30.26;52.71;94829.78;4944487;28;20125;-74
2021/06/29 09:53:42;;;;;;;8.57;7.88;;;;;;;30.70;53.36;94829.19;4949759;28;20788;-75
2021/06/29 09:56:16;;;;;;;7.97;7.18;;;;;;;30.97;54.06;94827.59;4955451;28;20061;-75
2021/06/29 09:58:46;;;;;;;11.77;7.97;;;;;;;30.83;55.25;94833.72;4945340;29;20042;-75
2021/06/29 10:01:15;;;;;;;9.05;7.85;;;;;;;30.01;53.58;94824.13;4953057;28;20071;-75
2021/06/29 10:03:41;;;;;;;8.95;8.15;;;;;;;31.01;56.14;94824.00;4966627;28;20094;-76
2021/06/29 10:06:17;;;;;;;9.45;7.65;;;;;;;30.14;54.86;94820.69;4963533;28;20031;-78
2021/06/29 10:08:44;;;;;;;8.32;7.25;;;;;;;30.23;54.10;94805.53;4947155;28;20031;-75
2021/06/29 10:11:09;;;;;;;8.18;7.45;;;;;;;30.68;55.57;94818.00;4940983;28;20114;-77
2021/06/29 10:13:46;;;;;;;8.95;7.80;;;;;;;31.32;55.85;94813.38;4966452;28;20624;-77
2021/06/29 10:16:12;;;;;;;8.15;7.43;;;;;;;30.98;52.60;94805.09;4932920;28;20092;-77
2021/06/29 10:19:28;;;;;;;8.93;8.07;;;;;;;30.32;51.55;94812.56;4948777;28;20321;-77
2021/06/29 10:21:24;;;;;;;8.60;7.70;;;;;;;30.96;54.55;94815.28;4929645;28;20106;-75
2021/06/29 10:23:57;;;;;;;9.43;8.52;;;;;;;31.50;53.38;94817.78;4944986;28;20106;-75
2021/06/29 10:26:23;;;;;;;7.82;7.13;;;;;;;31.35;51.44;94813.56;4946486;28;20042;-76
2021/06/29 10:28:49;;;;;;;7.78;7.18;;;;;;;31.22;51.69;94813.63;4932406;28;20039;-76
2021/06/29 10:31:25;;;;;;;7.78;6.85;;;;;;;30.96;51.30;94802.69;4965986;28;20511;-75
2021/06/29 10:33:52;;;;;;;8.23;7.45;;;;;;;31.40;51.20;94810.00;4966205;28;20113;-75
2021/06/29 10:36:19;;;;;;;9.75;7.85;;;;;;;31.53;50.21;94793.06;4956271;28;20019;-76
2021/06/29 10:38:44;;;;;;;8.68;7.13;;;;;;;31.38;49.84;94806.81;4931536;28;20019;-77
2021/06/29 10:41:10;;;;;;;8.95;8.00;;;;;;;31.28;50.38;94799.00;4948200;28;20026;-78
2021/06/29 10:43:36;;;;;;;7.25;6.65;;;;;;;31.08;50.67;94802.19;4950550;28;20123;-76
2021/06/29 10:46:02;;;;;;;8.40;7.53;;;;;;;30.81;51.84;94792.31;4926586;28;20035;-78
2021/06/29 10:48:27;;;;;;;7.60;6.85;;;;;;;30.69;48.81;94786.69;4914609;28;20027;-77
2021/06/29 10:50:54;;;;;;;8.35;7.60;;;;;;;30.93;51.29;94773.81;4929523;29;20028;-78
2021/06/29 10:53:44;;;;;;;8.80;7.95;;;;;;;31.09;49.80;94777.78;4919358;28;20542;-78
2021/06/29 10:56:17;;;;;;;8.25;7.45;;;;;;;31.43;49.44;94771.88;4936228;29;20473;-78
2021/06/29 10:58:45;;;;;;;7.72;7.13;;;;;;;30.77;48.13;94768.03;4923339;28;20086;-78
2021/06/29 11:01:27;;;;;;;8.23;7.45;;;;;;;31.42;49.99;94772.97;4905223;28;20465;-78
2021/06/29 11:03:54;;;;;;;7.63;6.97;;;;;;;30.68;46.54;94777.88;4934366;28;20065;-75
2021/06/29 11:06:48;;;;;;;8.15;6.65;;;;;;;30.82;45.96;94762.56;4936253;29;20106;-75
2021/06/29 11:09:20;;;;;;;6.63;6.13;;;;;;;31.36;44.54;94766.16;4916893;29;20030;-75
2021/06/29 11:12:21;;;;;;;8.30;7.30;;;;;;;31.17;46.78;94762.88;4930143;29;20132;-74
2021/06/29 11:14:47;;;;;;;7.35;6.75;;;;;;;31.52;47.46;94761.22;4945797;29;20039;-77
2021/06/29 11:17:13;;;;;;;7.25;6.55;;;;;;;31.65;43.56;94763.03;4929171;29;20023;-76
2021/06/29 11:20:06;;;;;;;7.85;6.80;;;;;;;31.85;48.20;94752.56;4929915;29;20132;-76
2021/06/29 11:22:51;;;;;;;7.38;6.75;;;;;;;31.32;47.08;94749.09;4946738;29;20102;-77
2021/06/29 11:25:35;;;;;;;7.20;6.60;;;;;;;31.40;49.07;94747.59;4931844;29;20050;-77
2021/06/29 11:28:04;;;;;;;7.93;7.22;;;;;;;31.29;46.56;94755.06;4948602;29;20035;-78
2021/06/29 11:30:51;;;;;;;7.05;6.47;;;;;;;31.45;47.20;94753.59;4932580;29;20031;-76
2021/06/29 11:33:43;;;;;;;7.53;6.50;;;;;;;31.40;45.31;94750.28;4948483;29;20444;-75
2021/06/29 11:36:21;;;;;;;7.40;6.70;;;;;;;31.57;47.37;94745.03;4945109;29;20102;-76
2021/06/29 11:38:46;;;;;;;6.60;6.10;;;;;;;31.53;46.33;94739.47;4948682;29;20023;-78
2021/06/29 11:41:24;;;;;;;8.43;6.45;;;;;;;31.61;45.78;94743.31;4927517;29;20078;-77
2021/06/29 11:43:52;;;;;;;6.55;5.97;;;;;;;31.98;46.94;94745.50;4946197;29;20027;-76
2021/06/29 11:46:54;;;;;;;8.82;6.57;;;;;;;31.61;43.31;94751.34;4941003;29;20469;-76
2021/06/29 11:49:26;;;;;;;6.35;5.75;;;;;;;31.55;43.61;94749.91;4927906;28;20035;-76
2021/06/29 11:51:52;;;;;;;6.32;5.65;;;;;;;31.60;44.88;94747.09;4954592;28;20521;-78
2021/06/29 11:54:32;;;;;;;6.90;5.95;;;;;;;31.94;44.75;94738.41;4941837;28;20118;-78
2021/06/29 11:56:58;;;;;;;5.78;5.25;;;;;;;32.04;45.24;94735.50;4944127;29;20027;-77
2021/06/29 11:59:30;;;;;;;6.75;6.25;;;;;;;31.94;45.86;94731.19;4918767;29;20074;-77
2021/06/29 12:02:03;;;;;;;6.72;6.15;;;;;;;32.12;45.99;94740.06;4941173;29;20083;-78
2021/06/29 12:04:29;;;;;;;9.73;5.88;;;;;;;31.82;43.81;94736.34;4947552;29;20045;-78
2021/06/29 12:07:02;;;;;;;6.80;6.10;;;;;;;31.63;43.00;94739.22;4946370;29;20035;-78
2021/06/29 12:09:31;;;;;;;6.03;5.63;;;;;;;31.78;44.88;94730.81;4949679;28;20023;-77
2021/06/29 12:12:19;;;;;;;6.05;5.57;;;;;;;31.87;43.93;94736.19;4946115;29;20027;-78
2021/06/29 12:14:44;;;;;;;5.67;5.20;;;;;;;32.11;43.61;94725.88;4949348;28;20043;-78
2021/06/29 12:17:10;;;;;;;9.35;5.53;;;;;;;31.98;43.04;94717.94;4947625;28;20473;-76
2021/06/29 12:19:36;;;;;;;5.57;5.10;;;;;;;32.33;41.77;94725.78;4948022;29;20050;-77
2021/06/29 12:22:01;;;;;;;5.10;4.60;;;;;;;32.37;45.70;94726.72;4931392;29;20035;-76
2021/06/29 12:24:27;;;;;;;5.70;4.30;;;;;;;32.21;41.99;94717.53;4946824;28;20106;-77
2021/06/29 12:26:52;;;;;;;4.88;4.53;;;;;;;32.24;40.01;94719.59;4946578;29;20464;-78
2021/06/29 12:29:33;;;;;;;7.03;5.10;;;;;;;32.09;41.01;94711.22;4944453;28;20031;-78
2021/06/29 12:31:58;;;;;;;7.93;4.63;;;;;;;31.93;39.61;94715.38;4932558;29;20031;-78
2021/06/29 12:34:24;;;;;;;5.38;4.22;;;;;;;32.22;40.37;94703.03;4947157;28;20042;-82
2021/06/29 12:36:50;;;;;;;6.68;5.40;;;;;;;32.24;41.08;94703.50;4945989;29;20046;-78
2021/06/29 12:39:15;;;;;;;14.65;5.70;;;;;;;32.41;41.75;94707.31;4948718;29;20031;-77
2021/06/29 12:41:42;;;;;;;6.88;5.18;;;;;;;32.48;41.92;94707.66;4945901;29;20511;-78
2021/06/29 12:44:10;;;;;;;5.93;5.38;;;;;;;32.23;41.85;94687.75;4947026;28;20032;-84
2021/06/29 12:46:42;;;;;;;7.25;5.40;;;;;;;32.38;42.18;94698.81;4928427;29;20400;-79
2021/06/29 12:49:22;;;;;;;8.43;5.70;;;;;;;32.54;44.05;94688.41;4947733;28;20587;-80
2021/06/29 12:52:02;;;;;;;6.50;5.70;;;;;;;32.72;44.46;94700.75;4930545;29;20035;-77
2021/06/29 12:54:31;;;;;;;7.07;6.53;;;;;;;32.51;40.78;94686.34;4947196;28;20121;-80
2021/06/29 12:56:57;;;;;;;;;;;;;;;32.69;40.59;94696.00;4947487;29;20027;-80
2021/06/29 12:59:24;;;;;;;6.40;5.80;;;;;;;32.23;40.13;94685.84;4945571;29;20447;-78
2021/06/29 13:01:52;;;;;;;6.38;5.75;;;;;;;32.41;38.40;94683.97;4934162;28;20046;-79
2021/06/29 13:04:17;;;;;;;6.18;5.55;;;;;;;32.34;42.33;94686.31;4948972;28;20054;-79
2021/06/29 13:06:45;;;;;;;6.68;6.18;;;;;;;32.46;43.83;94685.72;4967125;28;20078;-79
2021/06/29 13:09:11;;;;;;;6.10;5.60;;;;;;;31.92;38.84;94679.75;4949921;28;20070;-79
2021/06/29 13:11:37;;;;;;;6.20;5.60;;;;;;;32.48;39.60;94672.78;4948926;28;20031;-78
2021/06/29 13:14:05;;;;;;;5.47;5.07;;;;;;;32.50;38.69;94679.41;4950493;28;20026;-77
2021/06/29 13:16:30;;;;;;;5.70;5.17;;;;;;;32.10;41.09;94678.75;4916216;29;20083;-78
2021/06/29 13:18:56;;;;;;;6.30;5.68;;;;;;;31.94;39.57;94676.75;4955110;28;20758;-79
2021/06/29 13:21:27;;;;;;;6.38;5.10;;;;;;;32.08;39.45;94669.41;4947656;28;20031;-78
2021/06/29 13:24:06;;;;;;;5.95;5.35;;;;;;;32.25;41.13;94664.06;4950983;28;20431;-79
2021/06/29 13:26:32;;;;;;;7.13;5.90;;;;;;;32.00;40.06;94646.03;4948521;28;20500;-81
2021/06/29 13:28:59;;;;;;;5.85;5.43;;;;;;;32.67;41.12;94663.34;4948935;28;20046;-80
2021/06/29 13:31:35;;;;;;;7.75;5.28;;;;;;;32.70;41.18;94667.28;4949940;28;20033;-78
2021/06/29 13:34:01;;;;;;;7.05;5.72;;;;;;;32.63;41.89;94664.28;4948455;28;20487;-78
2021/06/29 13:36:28;;;;;;;8.43;5.68;;;;;;;32.50;42.88;94660.63;4948718;28;20054;-79
2021/06/29 13:38:55;;;;;;;6.75;6.05;;;;;;;31.97;39.25;94649.34;4966015;28;20030;-79
2021/06/29 13:41:37;;;;;;;8.27;6.15;;;;;;;31.73;40.84;94629.09;4965866;28;20105;-77
2021/06/29 13:44:10;;;;;;;6.50;5.95;;;;;;;32.08;40.35;94626.50;4933888;28;20042;-79
2021/06/29 13:46:35;;;;;;;8.25;7.55;;;;;;;31.91;40.77;94643.34;4960623;28;20113;-78
2021/06/29 13:49:24;;;;;;;13.93;7.78;;;;;;;31.86;42.27;94638.91;4934207;28;20027;-74
2021/06/29 13:52:01;;;;;;;7.43;6.47;;;;;;;32.08;43.50;94637.22;4942087;28;20043;-74
2021/06/29 13:54:26;;;;;;;8.65;7.82;;;;;;;31.81;44.03;94636.38;4941062;28;20050;-73
2021/06/29 13:56:52;;;;;;;7.88;7.07;;;;;;;32.07;41.71;94630.31;4959737;28;20040;-74
2021/06/29 13:59:37;;;;;;;9.95;7.90;;;;;;;31.78;41.59;94628.97;4958507;28;20019;-73
2021/06/29 14:02:03;;;;;;;8.52;6.70;;;;;;;32.20;42.72;94624.81;4954159;28;20038;-76
2021/06/29 14:04:29;;;;;;;8.15;7.43;;;;;;;32.57;43.70;94628.78;4973676;28;20165;-76
2021/06/29 14:07:11;;;;;;;8.43;7.68;;;;;;;31.93;45.01;94625.03;4975255;28;20033;-75
2021/06/29 14:09:37;;;;;;;9.60;8.55;;;;;;;31.78;44.03;94630.84;4972856;28;20459;-74
2021/06/29 14:12:03;;;;;;;8.07;7.47;;;;;;;31.88;44.59;94635.13;4972249;28;20018;-72
2021/06/29 14:14:29;;;;;;;9.25;8.05;;;;;;;32.04;44.10;94623.69;4974190;28;20084;-78
2021/06/29 14:16:58;;;;;;;9.73;7.85;;;;;;;31.47;43.73;94641.56;4939634;28;20030;-76
2021/06/29 14:19:24;;;;;;;9.05;8.23;;;;;;;31.73;44.37;94633.66;4959596;28;20106;-79
2021/06/29 14:21:50;;;;;;;10.70;7.75;;;;;;;31.80;46.04;94639.34;4930584;28;20022;-75
2021/06/29 14:24:16;;;;;;;9.07;8.25;;;;;;;31.76;46.46;94627.66;4952762;28;20114;-83
2021/06/29 14:26:42;;;;;;;11.05;8.00;;;;;;;31.71;45.92;94631.31;4956490;28;20097;-82
2021/06/29 14:29:07;;;;;;;8.75;8.15;;;;;;;31.57;46.66;94643.22;4923730;28;20023;-73
2021/06/29 14:31:33;;;;;;;8.52;7.82;;;;;;;31.31;45.84;94643.88;4974297;28;20023;-72
2021/06/29 14:33:58;;;;;;;8.93;7.28;;;;;;;31.19;46.21;94646.34;4975166;28;20062;-70
2021/06/29 14:36:24;;;;;;;9.23;8.32;;;;;;;30.93;46.92;94641.91;4975702;28;20015;-70
2021/06/29 14:38:50;;;;;;;10.05;8.00;;;;;;;30.73;50.02;94649.31;4973041;28;20131;-70
2021/06/29 14:41:16;;;;;;;11.38;8.98;;;;;;;30.54;52.64;94635.34;4966233;28;20631;-70
2021/06/29 14:43:42;;;;;;;13.30;7.95;;;;;;;30.51;52.18;94635.94;4973454;28;20097;-70
2021/06/29 14:46:07;;;;;;;9.00;8.13;;;;;;;29.85;56.01;94636.59;4972928;28;20461;-75
2021/06/29 14:48:33;;;;;;;9.82;8.85;;;;;;;29.81;57.42;94636.38;4942454;28;20030;-75
2021/06/29 14:50:58;;;;;;;10.25;9.25;;;;;;;29.48;59.30;94632.22;4956553;28;20045;-74
2021/06/29 14:53:24;;;;;;;10.23;9.27;;;;;;;29.38;61.23;94628.97;4977006;28;20040;-73
2021/06/29 14:55:49;;;;;;;10.55;9.57;;;;;;;29.34;61.92;94628.75;4977487;28;20022;-74
2021/06/29 14:58:15;;;;;;;10.55;9.57;;;;;;;29.17;62.98;94631.19;4978952;28;20069;-74
2021/06/29 15:00:40;;;;;;;12.70;10.05;;;;;;;28.99;63.96;94624.84;4977546;28;20077;-73
2021/06/29 15:03:12;;;;;;;11.07;10.07;;;;;;;28.82;66.11;94626.47;4979668;28;20027;-73
2021/06/29 15:05:38;;;;;;;11.55;9.65;;;;;;;28.72;67.19;94625.56;4975211;28;20097;-74
2021/06/29 15:08:05;;;;;;;10.38;9.32;;;;;;;28.94;63.71;94622.25;4960750;28;20037;-74
2021/06/29 15:10:30;;;;;;;15.88;10.02;;;;;;;29.03;62.59;94631.16;4979565;28;20018;-74
2021/06/29 15:12:59;;;;;;;10.85;9.80;;;;;;;28.89;64.90;94638.34;4976722;28;20026;-75
2021/06/29 15:15:24;;;;;;;11.52;10.05;;;;;;;28.32;68.47;94633.38;4961636;28;20030;-73
2021/06/29 15:17:50;;;;;;;11.35;10.30;;;;;;;28.47;68.38;94633.13;4960263;28;20045;-73
2021/06/29 15:20:19;;;;;;;13.13;9.57;;;;;;;29.07;67.29;94629.47;4978073;28;20022;-74
2021/06/29 15:22:44;;;;;;;;;;;;;;;29.69;62.46;94621.94;4956945;28;20483;-75
2021/06/29 15:25:11;;;;;;;11.25;9.00;;;;;;;30.16;59.30;94620.69;4958828;28;19985;-74
2021/06/29 15:27:37;;;;;;;10.00;9.10;;;;;;;30.07;60.19;94623.28;4977369;28;20026;-74
2021/06/29 15:30:04;;;;;;;9.85;8.85;;;;;;;30.25;61.83;94614.31;4977983;28;20395;-75
2021/06/29 15:32:30;;;;;;;9.52;8.40;;;;;;;30.44;55.85;94616.84;4958406;28;20034;-74
2021/06/29 15:34:55;;;;;;;11.13;8.10;;;;;;;30.51;54.41;94611.09;4975347;28;20503;-73
2021/06/29 15:37:21;;;;;;;9.60;8.73;;;;;;;30.36;55.88;94612.22;4978668;28;20033;-75
2021/06/29 15:39:47;;;;;;;10.70;9.43;;;;;;;30.32;57.90;94597.84;4975055;28;20043;-74
2021/06/29 15:42:12;;;;;;;10.88;9.77;;;;;;;30.45;58.69;94606.94;4961082;28;20081;-74
2021/06/29 15:44:38;;;;;;;13.13;11.77;;;;;;;30.29;58.67;94609.16;4976817;28;20030;-74
2021/06/29 15:47:03;;;;;;;12.93;11.80;;;;;;;30.25;58.93;94603.63;4960135;28;20049;-74
2021/06/29 15:49:29;;;;;;;13.45;11.45;;;;;;;30.02;59.50;94598.56;4959989;28;20373;-73
2021/06/29 15:51:54;;;;;;;13.10;11.73;;;;;;;30.01;59.98;94596.97;4976515;28;20050;-73
2021/06/29 15:54:20;;;;;;;13.07;11.80;;;;;;;29.92;61.19;94577.41;4975750;28;20068;-74
2021/06/29 15:56:45;;;;;;;11.90;11.00;;;;;;;30.00;60.43;94582.03;4976497;28;20029;-75
2021/06/29 15:59:14;;;;;;;12.70;11.38;;;;;;;29.91;60.68;94581.16;4970836;28;20031;-74
2021/06/29 16:01:39;;;;;;;13.37;12.17;;;;;;;29.82;60.60;94575.72;4946635;29;20130;-73
2021/06/29 16:04:05;;;;;;;12.10;10.93;;;;;;;29.81;61.53;94566.91;4945969;28;20349;-74
2021/06/29 16:06:31;;;;;;;14.02;12.70;;;;;;;29.50;61.66;94578.53;4931478;29;20024;-73
2021/06/29 16:08:57;;;;;;;13.75;11.38;;;;;;;29.38;63.17;94579.00;4946797;29;20019;-73
2021/06/29 16:11:23;;;;;;;14.70;12.02;;;;;;;29.11;63.71;94573.66;4948322;28;20548;-74
2021/06/29 16:13:49;;;;;;;16.08;11.93;;;;;;;28.92;64.58;94578.28;4947375;29;20058;-75
2021/06/29 16:16:14;;;;;;;16.35;12.52;;;;;;;28.78;65.16;94579.03;4949284;28;20043;-74
2021/06/29 16:18:48;;;;;;;13.73;12.65;;;;;;;28.73;63.93;94579.16;4948085;29;20042;-76
2021/06/29 16:21:15;;;;;;;13.70;12.00;;;;;;;28.66;65.29;94580.59;4948791;29;20118;-76
2021/06/29 16:23:40;;;;;;;12.98;11.80;;;;;;;28.53;64.02;94566.13;4930516;29;20038;-75
2021/06/29 16:26:06;;;;;;;13.52;11.52;;;;;;;28.61;64.76;94586.75;4949303;28;20019;-74
2021/06/29 16:28:31;;;;;;;12.75;11.60;;;;;;;28.48;64.93;94576.84;4945000;29;20528;-74
2021/06/29 16:30:57;;;;;;;13.65;12.30;;;;;;;28.55;64.48;94577.28;4947190;28;20031;-74